Time;durP1;ratioP1;P1;durP2;ratioP2;P2;SDS_P1;SDS_P2;PMS_P1;PMS_P2;Temp;Humidity;BMP_temperature;BMP_pressure;BME280_temperature;BME280_humidity;BME280_pressure;Samples;Min_cycle;Max_cycle;Signal;HPM_P1;HPM_P2
2022/09/16 00:02:16;;;;;;;;;;;11.80;99.90;;;;;;5072866;28;19923;-78
2022/09/16 00:04:42;;;;;;;;;;;11.80;99.90;;;;;;5067146;28;19960;-78
2022/09/16 00:07:08;;;;;;;;;;;11.80;99.90;;;;;;5068621;28;19917;-78
2022/09/16 00:09:35;;;;;;;;;;;11.70;99.90;;;;;;5058502;28;19999;-78
2022/09/16 00:12:01;;;;;;;;;;;11.80;99.90;;;;;;5070744;28;19916;-78
2022/09/16 00:14:26;;;;;;;;;;;11.70;99.90;;;;;;5071741;28;19920;-78
2022/09/16 00:16:52;;;;;;;;;;;11.70;99.90;;;;;;5069611;28;19997;-78
2022/09/16 00:19:18;;;;;;;;;;;11.60;99.90;;;;;;5072009;28;19920;-78
2022/09/16 00:21:45;;;;;;;;;;;11.70;99.90;;;;;;5072925;28;19916;-78
2022/09/16 00:24:12;;;;;;;;;;;11.60;99.90;;;;;;5067289;28;20003;-79
2022/09/16 00:26:38;;;;;;;;;;;11.60;99.90;;;;;;5072362;28;19922;-78
2022/09/16 00:29:04;;;;;;;;;;;11.60;99.90;;;;;;5071518;28;19916;-78
2022/09/16 00:31:29;;;;;;;;;;;11.60;99.90;;;;;;5072499;28;19916;-78
2022/09/16 00:33:55;;;;;;;;;;;11.60;99.90;;;;;;5072555;28;20440;-78
2022/09/16 00:36:20;;;;;;;;;;;11.60;99.90;;;;;;5070647;28;19921;-78
2022/09/16 00:38:49;;;;;;;;;;;11.60;99.90;;;;;;5055745;28;19916;-78
2022/09/16 00:41:17;;;;;;;;;;;11.50;99.90;;;;;;5062694;28;19917;-78
2022/09/16 00:43:53;;;;;;;;;;;11.50;99.90;;;;;;5072031;28;20369;-78
2022/09/16 00:46:26;;;;;;;;;;;11.50;99.90;;;;;;5071203;28;19963;-78
2022/09/16 00:48:52;;;;;;;;;;;11.50;99.90;;;;;;5071631;28;19912;-78
2022/09/16 00:51:19;;;;;;;;;;;11.40;99.90;;;;;;5072399;28;20324;-78
2022/09/16 00:53:59;;;;;;;;;;;11.50;99.90;;;;;;5067019;28;19924;-78
2022/09/16 00:56:25;;;;;;;;;;;11.50;99.90;;;;;;5062111;28;19973;-78
2022/09/16 00:58:51;;;;;;;;;;;11.50;99.90;;;;;;5069108;28;19965;-78
2022/09/16 01:01:17;;;;;;;;;;;11.40;99.90;;;;;;5078127;28;19916;-78
2022/09/16 01:03:47;;;;;;;;;;;11.40;99.90;;;;;;5055192;28;19921;-78
2022/09/16 01:06:14;;;;;;;;;;;11.40;99.90;;;;;;5045724;28;19920;-78
2022/09/16 01:08:41;;;;;;;;;;;11.40;99.90;;;;;;5071088;28;19921;-79
2022/09/16 01:11:07;;;;;;;;;;;11.40;99.90;;;;;;5061671;28;19919;-79
2022/09/16 01:13:32;;;;;;;;;;;11.40;99.90;;;;;;5070716;28;19917;-79
2022/09/16 01:16:05;;;;;;;;;;;11.40;99.90;;;;;;5068568;28;19947;-79
2022/09/16 01:18:40;;;;;;;;;;;11.40;99.90;;;;;;5070069;28;19913;-78
2022/09/16 01:21:14;;;;;;;;;;;11.40;99.90;;;;;;5060519;28;19923;-79
2022/09/16 01:23:45;;;;;;;;;;;11.40;99.90;;;;;;5071901;28;20014;-78
2022/09/16 01:26:17;;;;;;;;;;;11.40;99.90;;;;;;5062200;28;19916;-78
2022/09/16 01:29:06;;;;;;;;;;;11.40;99.90;;;;;;5071257;28;19960;-78
2022/09/16 01:31:51;;;;;;;;;;;11.50;99.90;;;;;;5071224;28;19975;-78
2022/09/16 01:34:33;;;;;;;;;;;11.50;99.90;;;;;;5051229;28;20007;-78
2022/09/16 01:37:31;;;;;;;;;;;11.50;99.90;;;;;;5066244;28;19912;-78
2022/09/16 01:39:57;;;;;;;;;;;11.50;99.90;;;;;;5065874;28;19917;-78
2022/09/16 01:42:37;;;;;;;;;;;11.50;99.90;;;;;;5066897;28;19962;-78
2022/09/16 01:45:06;;;;;;;;;;;11.50;99.90;;;;;;5057811;28;19916;-78
2022/09/16 01:47:49;;;;;;;;;;;11.60;99.90;;;;;;5071362;28;19962;-78
2022/09/16 01:50:21;;;;;;;;;;;11.50;99.90;;;;;;5071382;28;19946;-78
2022/09/16 01:53:14;;;;;;;;;;;11.60;99.90;;;;;;5065625;28;19912;-78
2022/09/16 01:56:01;;;;;;;;;;;11.50;99.90;;;;;;5068678;28;19924;-78
2022/09/16 01:58:38;;;;;;;;;;;11.50;99.90;;;;;;5069924;28;19916;-78
2022/09/16 02:01:08;;;;;;;;;;;11.60;99.90;;;;;;5069910;28;19912;-78
2022/09/16 02:03:37;;;;;;;;;;;11.50;99.90;;;;;;5070460;28;19921;-78
2022/09/16 02:06:07;;;;;;;;;;;11.50;99.90;;;;;;5070543;28;20265;-78
2022/09/16 02:08:53;;;;;;;;;;;11.50;99.90;;;;;;5052744;28;19913;-78
2022/09/16 02:11:19;;;;;;;;;;;11.50;99.90;;;;;;5045317;28;19943;-79
2022/09/16 02:13:48;;;;;;;;;;;11.50;99.90;;;;;;5065807;28;19959;-79
2022/09/16 02:16:21;;;;;;;;;;;11.50;99.90;;;;;;5068698;28;20003;-79
2022/09/16 02:18:51;;;;;;;;;;;11.50;99.90;;;;;;5068806;28;19952;-79
2022/09/16 02:21:17;;;;;;;;;;;11.50;99.90;;;;;;5064473;28;19913;-79
2022/09/16 02:23:45;;;;;;;;;;;11.50;99.90;;;;;;5068473;28;20610;-78
2022/09/16 02:26:14;;;;;;;;;;;11.50;99.90;;;;;;5068162;28;19916;-78
2022/09/16 02:28:42;;;;;;;;;;;11.50;99.90;;;;;;5066169;28;19916;-78
2022/09/16 02:31:08;;;;;;;;;;;11.50;99.90;;;;;;5057669;28;19916;-78
2022/09/16 02:33:43;;;;;;;;;;;11.50;99.90;;;;;;5069832;28;20058;-78
2022/09/16 02:36:10;;;;;;;;;;;11.40;99.90;;;;;;5069893;28;19913;-78
2022/09/16 02:38:40;;;;;;;;;;;11.40;99.90;;;;;;5069171;28;19913;-78
2022/09/16 02:41:08;;;;;;;;;;;11.40;99.90;;;;;;5062435;28;19916;-78
2022/09/16 02:43:34;;;;;;;;;;;11.50;99.90;;;;;;5058555;28;20007;-78
2022/09/16 02:46:07;;;;;;;;;;;11.40;99.90;;;;;;5067808;28;19996;-78
2022/09/16 02:48:36;;;;;;;;;;;11.40;99.90;;;;;;5067369;28;19962;-78
2022/09/16 02:51:09;;;;;;;;;;;11.40;99.90;;;;;;5057146;28;19912;-78
2022/09/16 02:53:47;;;;;;;;;;;11.40;99.90;;;;;;5070230;28;19917;-78
2022/09/16 02:56:20;;;;;;;;;;;11.40;99.90;;;;;;5069901;28;19912;-78
2022/09/16 02:58:46;;;;;;;;;;;11.40;99.90;;;;;;5070166;28;19963;-78
2022/09/16 03:01:12;;;;;;;;;;;11.40;99.90;;;;;;5070026;28;19955;-78
2022/09/16 03:03:38;;;;;;;;;;;11.40;99.90;;;;;;5069136;28;19916;-78
2022/09/16 03:06:07;;;;;;;;;;;11.40;99.90;;;;;;5051289;28;19920;-78
2022/09/16 03:08:33;;;;;;;;;;;11.30;99.90;;;;;;5069974;28;20329;-78
2022/09/16 03:11:04;;;;;;;;;;;11.30;99.90;;;;;;5070074;28;19920;-80
2022/09/16 03:13:38;;;;;;;;;;;11.30;99.90;;;;;;5070097;28;20062;-80
2022/09/16 03:16:30;;;;;;;;;;;11.40;99.90;;;;;;5059411;28;20462;-79
2022/09/16 03:19:16;;;;;;;;;;;11.40;99.90;;;;;;5066747;28;19923;-80
2022/09/16 03:21:56;;;;;;;;;;;11.40;99.90;;;;;;5067715;28;20328;-80
2022/09/16 03:24:31;;;;;;;;;;;11.40;99.90;;;;;;5050517;28;19942;-79
2022/09/16 03:27:11;;;;;;;;;;;11.40;99.90;;;;;;5065781;28;20287;-79
2022/09/16 03:29:39;;;;;;;;;;;11.40;99.90;;;;;;5069475;28;19912;-79
2022/09/16 03:32:10;;;;;;;;;;;11.40;99.90;;;;;;5069730;28;19913;-79
2022/09/16 03:34:36;;;;;;;;;;;11.40;99.90;;;;;;5068922;28;20035;-80
2022/09/16 03:37:04;;;;;;;;;;;11.40;99.90;;;;;;5066911;28;19920;-79
2022/09/16 03:39:30;;;;;;;;;;;11.30;99.90;;;;;;5068776;28;19916;-80
2022/09/16 03:41:59;;;;;;;;;;;11.30;99.90;;;;;;5064849;28;19939;-80
2022/09/16 03:44:31;;;;;;;;;;;11.30;99.90;;;;;;5069551;28;20046;-79
2022/09/16 03:46:57;;;;;;;;;;;11.30;99.90;;;;;;5065577;28;19912;-79
2022/09/16 03:49:23;;;;;;;;;;;11.30;99.90;;;;;;5068430;28;19963;-80
2022/09/16 03:51:48;;;;;;;;;;;11.30;99.90;;;;;;5068258;28;20011;-80
2022/09/16 03:54:14;;;;;;;;;;;11.40;99.90;;;;;;5069412;28;19920;-79
2022/09/16 03:56:39;;;;;;;;;;;11.30;99.90;;;;;;5069590;28;19917;-80
2022/09/16 03:59:05;;;;;;;;;;;11.40;99.90;;;;;;5051481;28;20001;-80
2022/09/16 04:01:30;;;;;;;;;;;11.40;99.90;;;;;;5063492;28;19974;-80
2022/09/16 04:03:56;;;;;;;;;;;11.40;99.90;;;;;;5051672;28;19936;-79
2022/09/16 04:06:22;;;;;;;;;;;11.40;99.90;;;;;;5041024;28;19943;-79
2022/09/16 04:08:49;;;;;;;;;;;11.40;99.90;;;;;;5047778;28;19913;-79
2022/09/16 04:11:15;;;;;;;;;;;11.40;99.90;;;;;;5064109;28;19920;-79
2022/09/16 04:13:40;;;;;;;;;;;11.40;99.90;;;;;;5063915;28;19923;-80
2022/09/16 04:16:06;;;;;;;;;;;11.40;99.90;;;;;;5059743;28;19983;-79
2022/09/16 04:18:32;;;;;;;;;;;11.40;99.90;;;;;;5062027;28;20011;-80
2022/09/16 04:20:59;;;;;;;;;;;11.40;99.90;;;;;;5065137;28;20284;-79
2022/09/16 04:23:25;;;;;;;;;;;11.40;99.90;;;;;;5046981;28;19962;-79
2022/09/16 04:25:57;;;;;;;;;;;11.40;99.90;;;;;;5061241;28;20003;-79
2022/09/16 04:28:23;;;;;;;;;;;11.40;99.90;;;;;;5066096;28;19923;-79
2022/09/16 04:30:49;;;;;;;;;;;11.40;99.90;;;;;;5067006;28;19917;-80
2022/09/16 04:33:14;;;;;;;;;;;11.40;99.90;;;;;;5071759;28;19926;-79
2022/09/16 04:35:40;;;;;;;;;;;11.40;99.90;;;;;;5073290;28;19912;-79
2022/09/16 04:38:05;;;;;;;;;;;11.40;99.90;;;;;;5054347;28;20393;-79
2022/09/16 04:40:31;;;;;;;;;;;11.30;99.90;;;;;;5065474;28;20031;-79
2022/09/16 04:42:57;;;;;;;;;;;11.30;99.90;;;;;;5059007;28;19913;-79
2022/09/16 04:45:23;;;;;;;;;;;11.30;99.90;;;;;;5071362;28;19925;-79
2022/09/16 04:47:57;;;;;;;;;;;11.30;99.90;;;;;;5070245;28;20387;-78
2022/09/16 04:50:22;;;;;;;;;;;11.30;99.90;;;;;;5046950;28;20010;-81
2022/09/16 04:52:50;;;;;;;;;;;11.30;99.90;;;;;;5051120;28;19920;-81
2022/09/16 04:55:21;;;;;;;;;;;11.30;99.90;;;;;;5062995;28;19924;-81
2022/09/16 04:57:48;;;;;;;;;;;11.30;99.90;;;;;;5057094;28;19967;-81
2022/09/16 05:00:13;;;;;;;;;;;11.30;99.90;;;;;;5067214;28;20280;-80
2022/09/16 05:02:39;;;;;;;;;;;11.30;99.90;;;;;;5063173;28;19921;-79
2022/09/16 05:05:05;;;;;;;;;;;11.30;99.90;;;;;;5061523;28;20434;-80
2022/09/16 05:07:30;;;;;;;;;;;11.30;99.90;;;;;;5058904;28;19917;-79
2022/09/16 05:09:56;;;;;;;;;;;11.30;99.90;;;;;;5070254;28;19917;-80
2022/09/16 05:12:21;;;;;;;;;;;11.30;99.90;;;;;;5074938;28;19921;-81
2022/09/16 05:14:47;;;;;;;;;;;11.30;99.90;;;;;;5036495;28;19917;-81
2022/09/16 05:17:13;;;;;;;;;;;11.30;99.90;;;;;;5061586;28;19916;-79
2022/09/16 05:19:38;;;;;;;;;;;11.30;99.90;;;;;;5071810;28;20288;-80
2022/09/16 05:22:06;;;;;;;;;;;11.30;99.90;;;;;;5076155;28;19927;-81
2022/09/16 05:24:35;;;;;;;;;;;11.30;99.90;;;;;;5068009;28;19921;-79
2022/09/16 05:27:01;;;;;;;;;;;11.30;99.90;;;;;;5075650;28;19924;-80
2022/09/16 05:29:26;;;;;;;;;;;11.30;99.90;;;;;;5066543;28;20186;-79
2022/09/16 05:31:52;;;;;;;;;;;11.30;99.90;;;;;;5066814;28;19927;-81
2022/09/16 05:34:20;;;;;;;;;;;11.40;99.90;;;;;;5073139;28;19916;-80
2022/09/16 05:36:47;;;;;;;;;;;11.30;99.90;;;;;;5077717;28;19923;-79
2022/09/16 05:39:14;;;;;;;;;;;11.40;99.90;;;;;;5058298;28;19948;-80
2022/09/16 05:41:40;;;;;;;;;;;11.40;99.90;;;;;;5074366;28;19918;-81
2022/09/16 05:44:06;;;;;;;;;;;11.40;99.90;;;;;;5062499;28;20000;-80
2022/09/16 05:46:31;;;;;;;;;;;11.40;99.90;;;;;;5062290;28;19921;-79
2022/09/16 05:48:57;;;;;;;;;;;11.40;99.90;;;;;;5073014;28;20353;-80
2022/09/16 05:51:23;;;;;;;;;;;11.50;99.90;;;;;;5061826;28;19936;-79
2022/09/16 05:53:49;;;;;;;;;;;11.50;99.90;;;;;;5063169;28;20007;-80
2022/09/16 05:56:16;;;;;;;;;;;11.50;99.90;;;;;;5066913;28;19916;-80
2022/09/16 05:58:41;;;;;;;;;;;11.60;99.90;;;;;;5067459;28;19964;-79
2022/09/16 06:01:08;;;;;;;;;;;11.60;99.90;;;;;;5049999;28;20385;-81
2022/09/16 06:03:35;;;;;;;;;;;11.60;99.90;;;;;;5065064;28;19940;-80
2022/09/16 06:06:02;;;;;;;;;;;11.60;99.90;;;;;;5052479;28;19916;-79
2022/09/16 06:08:28;;;;;;;;;;;11.60;99.90;;;;;;5061075;28;19939;-78
2022/09/16 06:10:54;;;;;;;;;;;11.60;99.90;;;;;;5057643;28;19912;-79
2022/09/16 06:13:19;;;;;;;;;;;11.70;99.90;;;;;;5064316;28;19927;-78
2022/09/16 06:15:50;;;;;;;;;;;11.60;99.90;;;;;;5066919;28;19920;-78
2022/09/16 06:18:16;;;;;;;;;;;11.60;99.90;;;;;;5061712;28;19924;-78
2022/09/16 06:20:41;;;;;;;;;;;11.70;99.90;;;;;;5062094;28;19928;-79
2022/09/16 06:23:08;;;;;;;;;;;11.70;99.90;;;;;;5050538;28;20352;-79
2022/09/16 06:25:33;;;;;;;;;;;11.80;99.90;;;;;;5063765;28;19947;-79
2022/09/16 06:27:59;;;;;;;;;;;11.80;99.90;;;;;;5069771;28;19982;-79
2022/09/16 06:30:25;;;;;;;;;;;11.80;99.90;;;;;;5063530;28;19927;-79
2022/09/16 06:32:50;;;;;;;;;;;11.90;99.90;;;;;;5060918;28;20003;-78
2022/09/16 06:35:16;;;;;;;;;;;11.90;99.90;;;;;;5068215;28;19913;-78
2022/09/16 06:37:41;;;;;;;;;;;11.90;99.90;;;;;;5050519;28;20393;-79
2022/09/16 06:40:07;;;;;;;;;;;12.00;99.90;;;;;;5065812;28;19923;-78
2022/09/16 06:42:33;;;;;;;;;;;12.00;99.90;;;;;;5068741;28;19916;-79
2022/09/16 06:45:03;;;;;;;;;;;12.10;99.90;;;;;;5067469;28;19921;-78
2022/09/16 06:47:30;;;;;;;;;;;12.10;99.90;;;;;;5061605;28;19916;-79
2022/09/16 06:49:55;;;;;;;;;;;12.10;99.90;;;;;;5067409;28;20001;-79
2022/09/16 06:52:21;;;;;;;;;;;12.10;99.90;;;;;;5069052;28;19963;-79
2022/09/16 06:54:46;;;;;;;;;;;12.10;99.90;;;;;;5050668;28;19970;-79
2022/09/16 06:57:12;;;;;;;;;;;12.20;99.90;;;;;;5068668;28;19917;-78
2022/09/16 06:59:38;;;;;;;;;;;12.30;99.90;;;;;;5068590;28;19918;-79
2022/09/16 07:02:03;;;;;;;;;;;12.30;99.90;;;;;;5063087;28;19916;-78
2022/09/16 07:04:29;;;;;;;;;;;12.30;99.90;;;;;;5064739;28;19951;-78
2022/09/16 07:06:57;;;;;;;;;;;12.40;99.90;;;;;;5045259;28;20389;-79
2022/09/16 07:09:23;;;;;;;;;;;12.50;99.90;;;;;;5061576;28;19939;-79
2022/09/16 07:11:48;;;;;;;;;;;12.60;99.90;;;;;;5067406;28;20003;-79
2022/09/16 07:14:14;;;;;;;;;;;12.70;99.90;;;;;;5058203;28;19925;-79
2022/09/16 07:16:39;;;;;;;;;;;12.90;99.90;;;;;;5068978;28;20434;-78
2022/09/16 07:19:05;;;;;;;;;;;13.30;99.90;;;;;;5059959;28;19916;-79
2022/09/16 07:21:30;;;;;;;;;;;13.90;99.90;;;;;;5068044;28;19925;-78
2022/09/16 07:23:57;;;;;;;;;;;14.50;99.90;;;;;;5061768;28;19909;-79
2022/09/16 07:26:27;;;;;;;;;;;14.70;99.90;;;;;;5063588;28;20432;-79
2022/09/16 07:28:54;;;;;;;;;;;14.70;99.90;;;;;;5068719;28;19920;-79
2022/09/16 07:31:23;;;;;;;;;;;14.70;99.90;;;;;;5070014;28;20689;-79
2022/09/16 07:33:49;;;;;;;;;;;14.80;99.90;;;;;;5068932;28;19920;-79
2022/09/16 07:36:18;;;;;;;;;;;14.90;99.90;;;;;;5060047;28;19916;-80
2022/09/16 07:38:44;;;;;;;;;;;14.70;99.90;;;;;;5066892;28;19962;-79
2022/09/16 07:41:17;;;;;;;;;;;14.70;99.90;;;;;;5042959;28;19913;-79
2022/09/16 07:43:43;;;;;;;;;;;14.50;99.90;;;;;;5064222;28;19924;-79
2022/09/16 07:46:10;;;;;;;;;;;14.50;99.90;;;;;;5067240;28;19913;-79
2022/09/16 07:48:36;;;;;;;;;;;14.50;99.90;;;;;;5070063;28;20529;-80
2022/09/16 07:51:03;;;;;;;;;;;14.50;99.90;;;;;;5064688;28;20005;-80
2022/09/16 07:53:31;;;;;;;;;;;14.60;99.90;;;;;;5067003;28;19935;-80
2022/09/16 07:56:00;;;;;;;;;;;14.70;99.90;;;;;;5065857;28;20015;-79
2022/09/16 07:58:25;;;;;;;;;;;14.80;99.90;;;;;;5065491;28;20407;-80
2022/09/16 08:00:51;;;;;;;;;;;14.90;99.90;;;;;;5071871;28;19913;-79
2022/09/16 08:03:17;;;;;;;;;;;15.00;99.90;;;;;;5071034;28;19927;-80
2022/09/16 08:05:42;;;;;;;;;;;15.10;99.90;;;;;;5071242;28;19943;-80
2022/09/16 08:08:08;;;;;;;;;;;15.10;99.90;;;;;;5068555;28;19946;-80
2022/09/16 08:10:35;;;;;;;;;;;15.00;99.90;;;;;;5063639;28;20012;-79
2022/09/16 08:13:01;;;;;;;;;;;14.70;99.90;;;;;;5071537;28;19948;-79
2022/09/16 08:15:27;;;;;;;;;;;14.50;99.90;;;;;;5071377;28;19939;-80
2022/09/16 08:17:53;;;;;;;;;;;14.40;99.90;;;;;;5065623;28;20392;-80
2022/09/16 08:20:19;;;;;;;;;;;14.30;99.90;;;;;;5066296;28;19912;-81
2022/09/16 08:22:44;;;;;;;;;;;14.20;99.90;;;;;;5052912;28;19913;-80
2022/09/16 08:25:10;;;;;;;;;;;14.20;99.90;;;;;;5050885;28;20388;-80
2022/09/16 08:27:36;;;;;;;;;;;14.30;99.90;;;;;;5070262;28;19912;-80
2022/09/16 08:30:02;;;;;;;;;;;14.30;99.90;;;;;;5047022;28;19916;-80
2022/09/16 08:32:28;;;;;;;;;;;14.30;99.90;;;;;;5063145;28;20011;-79
2022/09/16 08:34:53;;;;;;;;;;;14.20;99.90;;;;;;5059962;28;20428;-80
2022/09/16 08:37:19;;;;;;;;;;;14.20;99.90;;;;;;5065911;28;19917;-80
2022/09/16 08:39:45;;;;;;;;;;;14.10;99.90;;;;;;5065791;28;19970;-80
2022/09/16 08:42:11;;;;;;;;;;;14.10;99.90;;;;;;5064254;28;20543;-80
2022/09/16 08:44:52;;;;;;;;;;;14.00;99.90;;;;;;5063247;28;19919;-80
2022/09/16 08:47:33;;;;;;;;;;;13.90;99.90;;;;;;5063073;28;19940;-81
2022/09/16 08:50:00;;;;;;;;;;;13.90;99.90;;;;;;5061472;28;19919;-80
2022/09/16 08:52:36;;;;;;;;;;;13.90;99.90;;;;;;5064511;28;19966;-80
2022/09/16 08:55:09;;;;;;;;;;;14.00;99.90;;;;;;5067036;28;20463;-81
2022/09/16 08:57:39;;;;;;;;;;;14.20;99.90;;;;;;5063349;28;19921;-79
2022/09/16 09:00:12;;;;;;;;;;;14.40;99.90;;;;;;5064298;28;20007;-80
2022/09/16 09:02:41;;;;;;;;;;;14.50;99.90;;;;;;5062971;28;19919;-80
2022/09/16 09:05:25;;;;;;;;;;;14.60;99.90;;;;;;5050534;28;19919;-80
2022/09/16 09:08:09;;;;;;;;;;;14.50;99.90;;;;;;5068719;28;19912;-80
2022/09/16 09:10:41;;;;;;;;;;;14.40;99.90;;;;;;5069209;28;20063;-80
2022/09/16 09:13:16;;;;;;;;;;;14.20;99.90;;;;;;5069136;28;20295;-79
2022/09/16 09:15:44;;;;;;;;;;;14.10;99.90;;;;;;5066506;28;19912;-79
2022/09/16 09:18:10;;;;;;;;;;;14.10;99.90;;;;;;5057397;28;20443;-79
2022/09/16 09:20:35;;;;;;;;;;;14.10;99.90;;;;;;5061820;28;20003;-80
2022/09/16 09:23:10;;;;;;;;;;;14.10;99.90;;;;;;5068323;28;20407;-80
2022/09/16 09:25:55;;;;;;;;;;;14.10;99.90;;;;;;5055370;28;19916;-80
2022/09/16 09:28:22;;;;;;;;;;;14.10;99.90;;;;;;5060116;28;19912;-79
2022/09/16 09:30:52;;;;;;;;;;;14.10;99.90;;;;;;5062806;28;19923;-80
2022/09/16 09:33:27;;;;;;;;;;;14.10;99.90;;;;;;5048412;28;19941;-80
2022/09/16 09:36:12;;;;;;;;;;;14.00;99.90;;;;;;5056167;28;20015;-79
2022/09/16 09:38:46;;;;;;;;;;;14.10;99.90;;;;;;5061110;28;19916;-80
2022/09/16 09:41:23;;;;;;;;;;;14.10;99.90;;;;;;5068826;28;19917;-79
2022/09/16 09:43:53;;;;;;;;;;;14.00;99.90;;;;;;5069186;28;19926;-79
2022/09/16 09:46:25;;;;;;;;;;;14.00;99.90;;;;;;5064775;28;19920;-80
2022/09/16 09:48:56;;;;;;;;;;;14.00;99.90;;;;;;5050617;28;20440;-79
2022/09/16 09:51:28;;;;;;;;;;;14.10;99.90;;;;;;5070184;28;19913;-80
2022/09/16 09:53:56;;;;;;;;;;;14.20;99.90;;;;;;5062046;28;19973;-80
2022/09/16 09:56:29;;;;;;;;;;;14.20;99.90;;;;;;5049907;28;19917;-79
2022/09/16 09:59:13;;;;;;;;;;;14.30;99.90;;;;;;5072052;28;20749;-80
2022/09/16 10:01:39;;;;;;;;;;;14.30;99.90;;;;;;5066755;28;19912;-79
2022/09/16 10:04:11;;;;;;;;;;;14.40;99.90;;;;;;5060166;28;19978;-79
2022/09/16 10:06:37;;;;;;;;;;;14.50;99.90;;;;;;5067536;28;19998;-79
2022/09/16 10:09:02;;;;;;;;;;;14.50;99.90;;;;;;5066173;28;20541;-80
2022/09/16 10:11:30;;;;;;;;;;;14.50;99.90;;;;;;5068437;28;19917;-79
2022/09/16 10:13:57;;;;;;;;;;;14.60;99.90;;;;;;5067780;28;19920;-80
2022/09/16 10:16:28;;;;;;;;;;;14.70;99.90;;;;;;5066384;28;19913;-81
2022/09/16 10:18:59;;;;;;;;;;;14.80;99.90;;;;;;5063131;28;20357;-78
2022/09/16 10:21:36;;;;;;;;;;;14.90;99.90;;;;;;5064117;28;19959;-79
2022/09/16 10:24:01;;;;;;;;;;;14.90;99.90;;;;;;5066307;28;19919;-79
2022/09/16 10:26:27;;;;;;;;;;;14.90;99.90;;;;;;5060429;28;20011;-79
2022/09/16 10:28:58;;;;;;;;;;;14.90;99.90;;;;;;5058016;28;19971;-78
2022/09/16 10:31:25;;;;;;;;;;;14.90;99.90;;;;;;5059983;28;19921;-79
2022/09/16 10:33:51;;;;;;;;;;;14.90;99.90;;;;;;5059748;28;20349;-79
2022/09/16 10:36:18;;;;;;;;;;;14.80;99.90;;;;;;5055734;28;20016;-79
2022/09/16 10:38:47;;;;;;;;;;;14.70;99.90;;;;;;5068464;28;20065;-78
2022/09/16 10:41:23;;;;;;;;;;;14.70;99.90;;;;;;5065862;28;20049;-78
2022/09/16 10:43:50;;;;;;;;;;;14.70;99.90;;;;;;5056312;28;19973;-79
2022/09/16 10:46:17;;;;;;;;;;;14.70;99.90;;;;;;5061159;28;20315;-79
2022/09/16 10:48:44;;;;;;;;;;;14.80;99.90;;;;;;5056193;28;19939;-79
2022/09/16 10:51:23;;;;;;;;;;;14.90;99.90;;;;;;5060979;28;20005;-79
2022/09/16 10:54:11;;;;;;;;;;;15.00;99.90;;;;;;5060845;28;20062;-78
2022/09/16 10:56:47;;;;;;;;;;;15.10;99.90;;;;;;5063264;28;20647;-78
2022/09/16 10:59:13;;;;;;;;;;;15.20;99.90;;;;;;5061766;28;19927;-82
2022/09/16 11:01:42;;;;;;;;;;;15.30;99.90;;;;;;5076886;28;19916;-83
2022/09/16 11:04:15;;;;;;;;;;;15.30;99.90;;;;;;5077591;28;19938;-82
2022/09/16 11:06:53;;;;;;;;;;;15.50;99.90;;;;;;5070512;28;19924;-79
2022/09/16 11:09:18;;;;;;;;;;;15.50;99.90;;;;;;5060730;28;20759;-79
2022/09/16 11:12:04;;;;;;;;;;;15.60;99.90;;;;;;5054280;28;19908;-82
2022/09/16 11:14:39;;;;;;;;;;;15.70;99.90;;;;;;5067352;28;19976;-80
2022/09/16 11:17:13;;;;;;;;;;;15.70;99.90;;;;;;5063347;28;19920;-79
2022/09/16 11:19:53;;;;;;;;;;;15.70;99.90;;;;;;5065609;28;19913;-80
2022/09/16 11:22:36;;;;;;;;;;;15.70;99.90;;;;;;5057038;28;19913;-81
2022/09/16 11:25:17;;;;;;;;;;;15.60;99.90;;;;;;5066617;28;19917;-82
2022/09/16 11:28:01;;;;;;;;;;;15.50;99.90;;;;;;5063342;28;20519;-82
2022/09/16 11:30:29;;;;;;;;;;;15.40;99.90;;;;;;5065929;28;19920;-81
2022/09/16 11:33:14;;;;;;;;;;;15.30;99.90;;;;;;5072033;28;20815;-82
2022/09/16 11:36:02;;;;;;;;;;;15.30;99.90;;;;;;5071591;28;19947;-82
2022/09/16 11:38:43;;;;;;;;;;;15.30;99.90;;;;;;5078505;28;19959;-82
2022/09/16 11:41:20;;;;;;;;;;;15.20;99.90;;;;;;5073655;28;19912;-81
2022/09/16 11:43:48;;;;;;;;;;;15.10;99.90;;;;;;5070619;28;19921;-82
2022/09/16 11:46:32;;;;;;;;;;;15.10;99.90;;;;;;5076262;28;19973;-83
2022/09/16 11:49:15;;;;;;;;;;;15.10;99.90;;;;;;5067913;28;19919;-84
2022/09/16 11:51:48;;;;;;;;;;;15.20;99.90;;;;;;5058250;28;19920;-81
2022/09/16 11:54:14;;;;;;;;;;;15.40;99.90;;;;;;5068005;28;19919;-82
2022/09/16 11:56:45;;;;;;;;;;;15.50;99.90;;;;;;5074012;28;19917;-78
2022/09/16 11:59:24;;;;;;;;;;;15.70;99.90;;;;;;5063677;28;19952;-80
2022/09/16 12:02:08;;;;;;;;;;;15.80;99.90;;;;;;5070744;28;20646;-81
2022/09/16 12:04:37;;;;;;;;;;;15.70;99.90;;;;;;5071215;28;20011;-81
2022/09/16 12:07:13;;;;;;;;;;;15.80;99.90;;;;;;5074402;28;19916;-82
2022/09/16 12:09:58;;;;;;;;;;;15.80;99.90;;;;;;5066982;28;19925;-82
2022/09/16 12:12:27;;;;;;;;;;;15.70;99.90;;;;;;5066137;28;19920;-82
2022/09/16 12:15:14;;;;;;;;;;;15.70;99.90;;;;;;5065991;28;19913;-81
2022/09/16 12:17:41;;;;;;;;;;;15.70;99.90;;;;;;5064737;28;19983;-81
2022/09/16 12:20:15;;;;;;;;;;;15.70;99.90;;;;;;5071010;28;19955;-79
2022/09/16 12:22:44;;;;;;;;;;;15.80;99.90;;;;;;5058162;28;19963;-79
2022/09/16 12:25:15;;;;;;;;;;;15.90;99.90;;;;;;5067947;28;20384;-79
2022/09/16 12:27:47;;;;;;;;;;;16.00;99.90;;;;;;5074143;28;19947;-80
2022/09/16 12:30:12;;;;;;;;;;;16.10;99.90;;;;;;5068360;28;20449;-79
2022/09/16 12:32:57;;;;;;;;;;;16.10;99.90;;;;;;5074166;28;19913;-80
2022/09/16 12:35:25;;;;;;;;;;;16.00;99.90;;;;;;5069817;28;19912;-78
2022/09/16 12:37:52;;;;;;;;;;;15.90;99.90;;;;;;5072309;28;19913;-79
2022/09/16 12:40:25;;;;;;;;;;;15.70;99.90;;;;;;5073164;28;19924;-79
2022/09/16 12:43:00;;;;;;;;;;;15.50;99.90;;;;;;5066021;28;20315;-78
2022/09/16 12:45:31;;;;;;;;;;;15.30;99.90;;;;;;5066380;28;20385;-82
2022/09/16 12:48:07;;;;;;;;;;;15.20;99.90;;;;;;5061155;28;19920;-79
2022/09/16 12:50:36;;;;;;;;;;;15.20;99.90;;;;;;5061378;28;19920;-79
2022/09/16 12:53:12;;;;;;;;;;;15.30;99.90;;;;;;5064051;28;19912;-80
2022/09/16 12:55:53;;;;;;;;;;;15.40;99.90;;;;;;5064194;28;19916;-79
2022/09/16 12:58:30;;;;;;;;;;;15.40;99.90;;;;;;5071410;28;20284;-80
2022/09/16 13:01:10;;;;;;;;;;;15.40;99.90;;;;;;5066803;28;19916;-79
2022/09/16 13:03:40;;;;;;;;;;;15.50;99.90;;;;;;5069137;28;19974;-80
2022/09/16 13:06:14;;;;;;;;;;;15.50;99.90;;;;;;5066046;28;19935;-80
2022/09/16 13:08:41;;;;;;;;;;;15.50;99.90;;;;;;5073466;28;19923;-79
2022/09/16 13:11:14;;;;;;;;;;;15.50;99.90;;;;;;5072659;28;20261;-80
2022/09/16 13:13:41;;;;;;;;;;;15.50;99.90;;;;;;5066654;28;19913;-81
2022/09/16 13:16:08;;;;;;;;;;;15.50;99.90;;;;;;5061142;28;19917;-79
2022/09/16 13:18:44;;;;;;;;;;;15.50;99.90;;;;;;5065063;28;20377;-80
2022/09/16 13:21:15;;;;;;;;;;;15.60;99.90;;;;;;5063168;28;20380;-79
2022/09/16 13:23:43;;;;;;;;;;;15.70;99.90;;;;;;5062522;28;19916;-80
2022/09/16 13:26:09;;;;;;;;;;;15.70;99.90;;;;;;5057079;28;19921;-78
2022/09/16 13:28:39;;;;;;;;;;;15.70;99.90;;;;;;5060289;28;20024;-79
2022/09/16 13:31:15;;;;;;;;;;;15.80;99.90;;;;;;5063405;28;19925;-80
2022/09/16 13:33:42;;;;;;;;;;;15.70;99.90;;;;;;5069380;28;19995;-79
2022/09/16 13:36:12;;;;;;;;;;;15.70;99.90;;;;;;5048343;28;20360;-79
2022/09/16 13:38:39;;;;;;;;;;;15.70;99.90;;;;;;5068130;28;20589;-79
2022/09/16 13:41:06;;;;;;;;;;;15.70;99.90;;;;;;5063543;28;19951;-80
2022/09/16 13:43:31;;;;;;;;;;;15.70;99.90;;;;;;5066801;28;19912;-81
2022/09/16 13:46:08;;;;;;;;;;;15.60;99.90;;;;;;5069515;28;20419;-80
2022/09/16 13:48:53;;;;;;;;;;;15.50;99.90;;;;;;5064244;28;19912;-80
2022/09/16 13:51:20;;;;;;;;;;;15.30;99.90;;;;;;5090131;27;19920;-81
2022/09/16 13:53:50;;;;;;;;;;;15.20;99.90;;;;;;5063203;28;19916;-80
2022/09/16 13:56:21;;;;;;;;;;;15.20;99.90;;;;;;5059769;28;19924;-80
2022/09/16 13:59:04;;;;;;;;;;;15.10;99.90;;;;;;5046507;28;19916;-80
2022/09/16 14:01:36;;;;;;;;;;;15.10;99.90;;;;;;5058998;28;19975;-81
2022/09/16 14:04:01;;;;;;;;;;;15.10;99.90;;;;;;5060654;28;19975;-81
2022/09/16 14:06:39;;;;;;;;;;;15.20;99.90;;;;;;5056029;28;20481;-81
2022/09/16 14:09:31;;;;;;;;;;;15.20;99.90;;;;;;5076272;28;20482;-81
2022/09/16 14:11:57;;;;;;;;;;;15.10;99.90;;;;;;5076749;28;19912;-81
2022/09/16 14:14:25;;;;;;;;;;;15.00;99.90;;;;;;5056389;28;19913;-80
2022/09/16 14:16:51;;;;;;;;;;;15.00;99.90;;;;;;5057114;28;19922;-80
2022/09/16 14:19:20;;;;;;;;;;;14.80;99.90;;;;;;5066322;28;19943;-80
2022/09/16 14:21:46;;;;;;;;;;;14.70;99.90;;;;;;5072634;28;19983;-81
2022/09/16 14:24:16;;;;;;;;;;;14.60;99.90;;;;;;5054814;28;19962;-80
2022/09/16 14:26:49;;;;;;;;;;;14.50;99.90;;;;;;5063971;28;19917;-80
2022/09/16 14:29:15;;;;;;;;;;;14.40;99.90;;;;;;5065352;28;19917;-80
2022/09/16 14:31:44;;;;;;;;;;;14.30;99.90;;;;;;5064870;28;19938;-81
2022/09/16 14:34:14;;;;;;;;;;;14.20;99.90;;;;;;5054027;28;19919;-80